createdAt,value
2023-04-02T00:00:37.459Z,98383.75
2023-04-02T00:05:54.977Z,98431.78
2023-04-02T00:11:02.441Z,98404.63
2023-04-02T00:16:12.495Z,98428.63
2023-04-02T00:21:30.571Z,98404.03
2023-04-02T00:26:44.584Z,98419.81
2023-04-02T00:31:53.220Z,98458.53
2023-04-02T00:36:55.804Z,98397.72
2023-04-02T00:42:05.907Z,98430.81
2023-04-02T00:47:48.203Z,98429.22
2023-04-02T00:52:52.884Z,98460.72
2023-04-02T00:57:59.993Z,98439.75
2023-04-02T01:03:37.246Z,98402.88
2023-04-02T01:08:58.518Z,98426.00
2023-04-02T01:14:12.944Z,98453.56
2023-04-02T01:19:54.395Z,98444.06
2023-04-02T01:24:58.670Z,98451.25
2023-04-02T01:30:03.607Z,98453.31
2023-04-02T01:35:07.052Z,98437.91
2023-04-02T01:40:47.072Z,98460.66
2023-04-02T01:45:50.320Z,98433.16
2023-04-02T01:50:55.374Z,98480.50
2023-04-02T01:56:01.719Z,98486.00
2023-04-02T02:01:17.228Z,98502.50
2023-04-02T02:06:20.120Z,98475.75
2023-04-02T02:11:27.530Z,98511.19
2023-04-02T02:16:32.035Z,98478.13
2023-04-02T02:21:46.389Z,98483.66
2023-04-02T02:27:07.831Z,98510.34
2023-04-02T02:32:15.713Z,98474.91
2023-04-02T02:37:29.105Z,98418.78
2023-04-02T02:42:40.036Z,98498.31
2023-04-02T02:47:46.056Z,98496.06
2023-04-02T02:52:55.124Z,98463.34
2023-04-02T02:58:28.282Z,98504.81
2023-04-02T03:03:41.510Z,98484.88
2023-04-02T03:08:52.846Z,98524.25
2023-04-02T03:14:23.176Z,98492.34
2023-04-02T03:19:59.473Z,98497.31
2023-04-02T03:25:16.988Z,98513.19
2023-04-02T03:30:45.677Z,98484.56
2023-04-02T03:36:03.688Z,98531.97
2023-04-02T03:41:36.414Z,98483.28
2023-04-02T03:46:44.785Z,98542.41
2023-04-02T03:52:04.898Z,98519.84
2023-04-02T03:57:33.723Z,98564.75
2023-04-02T04:02:53.604Z,98556.00
2023-04-02T04:08:34.728Z,98566.41
2023-04-02T04:14:09.771Z,98539.47
2023-04-02T04:19:39.383Z,98541.88
2023-04-02T04:24:46.018Z,98589.84
2023-04-02T04:30:03.373Z,98536.97
2023-04-02T04:35:29.906Z,98537.69
2023-04-02T04:40:37.562Z,98558.38
2023-04-02T04:46:44.747Z,98602.28
2023-04-02T04:52:06.227Z,98617.72
2023-04-02T04:57:36.723Z,98607.59
2023-04-02T05:03:03.947Z,98594.84
2023-04-02T05:08:35.583Z,98576.31
2023-04-02T05:13:55.082Z,98623.94
2023-04-02T05:19:45.827Z,98605.09
2023-04-02T05:25:14.372Z,98591.69
2023-04-02T05:30:56.607Z,98610.75
2023-04-02T05:36:12.061Z,98636.06
2023-04-02T05:41:37.006Z,98635.31
2023-04-02T05:46:58.768Z,98603.16
2023-04-02T05:52:05.072Z,98609.94
2023-04-02T05:57:17.652Z,98647.38
2023-04-02T06:02:41.616Z,98677.09
2023-04-02T06:07:56.336Z,98597.22
2023-04-02T06:13:10.982Z,98674.72
2023-04-02T06:18:20.515Z,98632.03
2023-04-02T06:23:57.067Z,98672.38
2023-04-02T06:29:15.706Z,98644.50
2023-04-02T06:34:21.838Z,98677.03
2023-04-02T06:39:29.823Z,98665.03
2023-04-02T06:44:36.832Z,98636.69
2023-04-02T06:50:27.051Z,98703.00
2023-04-02T06:55:47.366Z,98692.78
2023-04-02T07:00:53.370Z,98727.63
2023-04-02T07:06:06.967Z,98712.75
2023-04-02T07:11:18.740Z,98715.06
2023-04-02T07:16:26.629Z,98764.97
2023-04-02T07:21:29.947Z,98716.72
2023-04-02T07:26:33.050Z,98699.84
2023-04-02T07:31:35.490Z,98737.94
2023-04-02T07:36:37.823Z,98765.72
2023-04-02T07:41:58.643Z,98773.41
2023-04-02T07:47:01.257Z,98779.88
2023-04-02T07:52:04.253Z,98806.72
2023-04-02T07:57:06.395Z,98775.84
2023-04-02T08:02:21.525Z,98830.03
2023-04-02T08:07:23.934Z,98828.31
2023-04-02T08:12:26.469Z,98836.75
2023-04-02T08:17:31.491Z,98824.53
2023-04-02T08:22:34.209Z,98810.16
2023-04-02T08:27:36.464Z,98810.03
2023-04-02T08:32:41.317Z,98821.03
2023-04-02T08:37:44.047Z,98867.84
2023-04-02T08:43:18.606Z,98891.66
2023-04-02T08:48:21.524Z,98921.06
2023-04-02T08:53:31.414Z,98910.44
2023-04-02T08:58:42.502Z,98931.50
2023-04-02T09:03:50.700Z,98857.94
2023-04-02T09:08:54.490Z,98932.47
2023-04-02T09:19:32.192Z,98903.97
2023-04-02T09:24:35.915Z,98931.13
2023-04-02T09:29:45.970Z,98926.81
2023-04-02T09:34:48.221Z,98914.97
2023-04-02T09:39:50.576Z,98952.94
2023-04-02T09:44:52.908Z,98919.63
2023-04-02T09:49:55.611Z,98888.78
2023-04-02T09:55:16.300Z,98997.34
2023-04-02T10:00:31.446Z,98953.53
2023-04-02T10:05:44.530Z,98968.16
2023-04-02T10:10:55.511Z,99002.91
2023-04-02T10:16:38.398Z,98976.81
2023-04-02T10:21:43.248Z,98916.63
2023-04-02T10:27:27.894Z,98954.53
2023-04-02T10:32:57.959Z,98947.38
2023-04-02T10:38:34.902Z,99015.44
2023-04-02T10:44:12.753Z,98972.03
2023-04-02T10:49:58.929Z,99054.25
2023-04-02T10:55:13.627Z,99031.22
2023-04-02T11:00:29.129Z,99009.94
2023-04-02T11:05:58.498Z,99038.06
2023-04-02T11:11:15.895Z,99081.91
2023-04-02T11:16:18.704Z,99105.56
2023-04-02T11:21:51.103Z,99034.53
2023-04-02T11:27:12.216Z,99016.34
2023-04-02T11:32:26.972Z,99007.63
2023-04-02T11:37:44.963Z,99007.66
2023-04-02T11:42:50.591Z,99018.72
2023-04-02T11:48:02.294Z,99044.03
2023-04-02T11:53:21.966Z,99073.25
2023-04-02T11:59:21.588Z,99100.91
2023-04-02T12:05:14.538Z,99154.03
2023-04-02T12:10:22.766Z,99113.16
2023-04-02T12:15:46.996Z,99155.97
2023-04-02T12:20:56.057Z,99089.41
2023-04-02T12:26:30.346Z,99127.28
2023-04-02T12:31:33.733Z,99097.91
2023-04-02T12:36:36.097Z,99098.97
2023-04-02T12:41:38.527Z,99082.88
2023-04-02T12:46:41.169Z,99162.56
2023-04-02T12:51:43.571Z,99111.41
2023-04-02T12:56:46.495Z,99110.16
2023-04-02T13:02:14.779Z,99095.59
2023-04-02T13:07:25.292Z,99159.88
2023-04-02T13:12:38.673Z,99168.75
2023-04-02T13:18:02.269Z,99098.25
2023-04-02T13:23:27.134Z,99119.09
2023-04-02T13:28:29.703Z,99135.06
2023-04-02T13:33:32.002Z,99201.84
2023-04-02T13:38:34.162Z,99196.53
2023-04-02T13:43:36.977Z,99167.00
2023-04-02T13:48:39.788Z,99168.44
2023-04-02T13:53:42.262Z,99132.06
2023-04-02T13:58:46.626Z,99155.81
2023-04-02T14:03:49.054Z,99215.31
2023-04-02T14:09:12.370Z,99160.28
2023-04-02T14:14:45.556Z,99187.84
2023-04-02T14:20:02.292Z,99177.13
2023-04-02T14:25:23.561Z,99119.47
2023-04-02T14:31:07.211Z,99168.91
2023-04-02T14:36:36.594Z,99136.72
2023-04-02T14:42:16.693Z,99094.78
2023-04-02T14:47:29.984Z,99131.34
2023-04-02T14:52:35.829Z,99112.56
2023-04-02T14:57:52.577Z,99070.84
2023-04-02T15:03:15.703Z,99121.50
2023-04-02T15:09:08.786Z,99006.81
2023-04-02T15:14:47.840Z,99148.19
2023-04-02T15:19:56.546Z,99127.25
2023-04-02T15:25:48.245Z,99156.91
2023-04-02T15:30:57.423Z,99096.88
2023-04-02T15:36:33.242Z,99173.13
2023-04-02T15:41:42.803Z,99170.84
2023-04-02T15:47:28.833Z,99169.66
2023-04-02T15:53:01.277Z,99168.09
2023-04-02T15:58:35.603Z,99160.56
2023-04-02T16:04:20.626Z,99085.03
2023-04-02T16:09:47.444Z,99196.56
2023-04-02T16:14:50.440Z,99184.72
2023-04-02T16:20:02.069Z,99134.44
2023-04-02T16:25:16.583Z,99053.56
2023-04-02T16:30:30.588Z,99116.72
2023-04-02T16:36:24.177Z,99073.31
2023-04-02T16:41:47.893Z,99195.06
2023-04-02T16:47:17.809Z,99141.16
2023-04-02T16:52:26.103Z,99110.28
2023-04-02T16:57:40.454Z,99129.91
2023-04-02T17:03:04.446Z,99250.78
2023-04-02T17:08:24.584Z,99176.41
2023-04-02T17:13:56.714Z,99196.41
2023-04-02T17:18:59.143Z,99178.72
2023-04-02T17:24:26.581Z,99238.44
2023-04-02T17:29:39.548Z,99126.72
2023-04-02T17:34:41.838Z,99140.56
2023-04-02T17:40:09.263Z,99182.00
2023-04-02T17:45:33.443Z,99147.63
2023-04-02T17:50:54.286Z,99249.13
2023-04-02T17:56:17.471Z,99163.94
2023-04-02T18:01:35.817Z,99222.47
2023-04-02T18:07:08.896Z,99233.69
2023-04-02T18:12:22.209Z,99205.34
2023-04-02T18:17:53.344Z,99216.47
2023-04-02T18:23:12.173Z,99273.41
2023-04-02T18:28:57.410Z,99260.72
2023-04-02T18:34:24.469Z,99279.59
2023-04-02T18:40:08.293Z,99265.59
2023-04-02T18:45:44.882Z,99278.13
2023-04-02T18:50:47.378Z,99327.19
2023-04-02T18:56:01.734Z,99261.31
2023-04-02T19:01:08.338Z,99308.41
2023-04-02T19:06:19.462Z,99298.38
2023-04-02T19:11:31.607Z,99321.81
2023-04-02T19:17:16.951Z,99297.66
2023-04-02T19:22:50.667Z,99338.88
2023-04-02T19:28:44.896Z,99318.00
2023-04-02T19:34:03.833Z,99326.28
2023-04-02T19:39:31.452Z,99326.97
2023-04-02T19:44:33.858Z,99360.53
2023-04-02T19:49:36.389Z,99427.91
2023-04-02T19:54:38.810Z,99370.03
2023-04-02T19:59:41.123Z,99413.81
2023-04-02T20:04:43.244Z,99369.47
2023-04-02T20:09:45.314Z,99334.75
2023-04-02T20:14:47.435Z,99408.81
2023-04-02T20:19:49.534Z,99397.69
2023-04-02T20:24:51.767Z,99420.09
2023-04-02T20:29:53.891Z,99352.19
2023-04-02T20:34:56.220Z,99382.91
2023-04-02T20:39:58.731Z,99356.97
2023-04-02T20:45:00.815Z,99364.09
2023-04-02T20:50:03.296Z,99461.19
2023-04-02T20:55:06.470Z,99370.19
2023-04-02T21:00:10.282Z,99426.41
2023-04-02T21:05:12.490Z,99338.25
2023-04-02T21:10:14.725Z,99454.28
2023-04-02T21:15:17.217Z,99462.75
2023-04-02T21:20:19.529Z,99492.38
2023-04-02T21:25:21.695Z,99370.81
2023-04-02T21:30:24.092Z,99410.50
2023-04-02T21:35:26.244Z,99457.94
2023-04-02T21:40:28.420Z,99391.88
2023-04-02T21:45:30.890Z,99396.47
2023-04-02T21:50:33.221Z,99383.00
2023-04-02T21:55:35.528Z,99492.50
2023-04-02T22:00:37.936Z,99463.97
2023-04-02T22:05:40.692Z,99418.50
2023-04-02T22:10:43.022Z,99518.88
2023-04-02T22:15:45.318Z,99422.28
2023-04-02T22:20:47.639Z,99474.09
2023-04-02T22:25:50.130Z,99411.78
2023-04-02T22:30:52.837Z,99500.75
2023-04-02T22:35:55.225Z,99471.06
2023-04-02T22:41:23.200Z,99489.34
2023-04-02T22:46:27.243Z,99500.91
2023-04-02T22:51:30.567Z,99480.66
2023-04-02T22:56:33.302Z,99477.47
2023-04-02T23:01:37.025Z,99500.06
2023-04-02T23:06:39.490Z,99508.09
2023-04-02T23:11:41.758Z,99497.47
2023-04-02T23:16:43.966Z,99534.78
2023-04-02T23:21:46.039Z,99488.44
2023-04-02T23:26:48.325Z,99485.22
2023-04-02T23:31:51.057Z,99476.09
2023-04-02T23:36:53.513Z,99429.56
2023-04-02T23:41:55.949Z,99519.47
2023-04-02T23:46:59.066Z,99507.94
2023-04-02T23:52:01.407Z,99453.69
2023-04-02T23:57:03.615Z,99476.31
